Terminal Aerodrome Forecast
Issued by NWS

Home | Current Version | Previous Version | Text Only | Print | Product List | Glossary On
Versions: 1 2 3 4 5 6 7 8 9 10 11 12 13 14
017
FTAK31 PAJN 300535
TAFAJN
TAF
PAJN 300535Z 3006/3106 08006KT 6SM -SHRA FEW007 BKN025 OVC035
     FM301800 10012KT P6SM VCSH BKN025 OVC040 WS020/15025KT
     FM310200 11020G30KT P6SM -RA BKN025 OVC040 WS020/15040KT=

USA.gov is the U.S. government's official web portal to all federal, state and local government web resources and services.